sensor_id;sensor_type;location;lat;lon;timestamp;P1;durP1;ratioP1;P2;durP2;ratioP2
62588;SDS011;58504;48.770;9.148;2023-10-19T00:00:45;1.80;;;1.42;;
62588;SDS011;58504;48.770;9.148;2023-10-19T00:03:14;1.48;;;1.38;;
62588;SDS011;58504;48.770;9.148;2023-10-19T00:05:42;1.13;;;1.10;;
62588;SDS011;58504;48.770;9.148;2023-10-19T00:08:10;1.45;;;1.10;;
62588;SDS011;58504;48.770;9.148;2023-10-19T00:10:42;1.57;;;1.47;;
62588;SDS011;58504;48.770;9.148;2023-10-19T00:13:13;2.17;;;1.50;;
62588;SDS011;58504;48.770;9.148;2023-10-19T00:15:44;2.05;;;1.40;;
62588;SDS011;58504;48.770;9.148;2023-10-19T00:18:13;1.20;;;1.20;;
62588;SDS011;58504;48.770;9.148;2023-10-19T00:20:49;4.40;;;1.58;;
62588;SDS011;58504;48.770;9.148;2023-10-19T00:23:17;1.13;;;1.13;;
62588;SDS011;58504;48.770;9.148;2023-10-19T00:25:50;1.23;;;1.23;;
62588;SDS011;58504;48.770;9.148;2023-10-19T00:28:18;1.38;;;1.38;;
62588;SDS011;58504;48.770;9.148;2023-10-19T00:30:43;0.98;;;0.98;;
62588;SDS011;58504;48.770;9.148;2023-10-19T00:33:11;1.30;;;1.20;;
62588;SDS011;58504;48.770;9.148;2023-10-19T00:35:43;1.50;;;1.30;;
62588;SDS011;58504;48.770;9.148;2023-10-19T00:38:15;1.42;;;1.33;;
62588;SDS011;58504;48.770;9.148;2023-10-19T00:41:06;1.30;;;1.30;;
62588;SDS011;58504;48.770;9.148;2023-10-19T00:43:37;1.20;;;1.20;;
62588;SDS011;58504;48.770;9.148;2023-10-19T00:46:08;1.52;;;1.10;;
62588;SDS011;58504;48.770;9.148;2023-10-19T00:48:40;1.52;;;1.40;;
62588;SDS011;58504;48.770;9.148;2023-10-19T00:51:10;1.50;;;1.40;;
62588;SDS011;58504;48.770;9.148;2023-10-19T00:53:51;1.60;;;1.50;;
62588;SDS011;58504;48.770;9.148;2023-10-19T00:56:21;1.02;;;1.02;;
62588;SDS011;58504;48.770;9.148;2023-10-19T00:58:51;1.48;;;1.48;;
62588;SDS011;58504;48.770;9.148;2023-10-19T01:01:23;1.20;;;1.20;;
62588;SDS011;58504;48.770;9.148;2023-10-19T01:03:53;1.10;;;1.08;;
62588;SDS011;58504;48.770;9.148;2023-10-19T01:06:21;1.50;;;1.40;;
62588;SDS011;58504;48.770;9.148;2023-10-19T01:08:48;1.20;;;1.20;;
62588;SDS011;58504;48.770;9.148;2023-10-19T01:11:16;1.73;;;1.63;;
62588;SDS011;58504;48.770;9.148;2023-10-19T01:13:47;1.73;;;1.40;;
62588;SDS011;58504;48.770;9.148;2023-10-19T01:16:15;1.42;;;1.33;;
62588;SDS011;58504;48.770;9.148;2023-10-19T01:18:47;1.08;;;0.98;;
62588;SDS011;58504;48.770;9.148;2023-10-19T01:21:15;1.20;;;1.20;;
62588;SDS011;58504;48.770;9.148;2023-10-19T01:23:47;1.33;;;1.23;;
62588;SDS011;58504;48.770;9.148;2023-10-19T01:26:14;1.40;;;1.20;;
62588;SDS011;58504;48.770;9.148;2023-10-19T01:28:47;1.50;;;1.23;;
62588;SDS011;58504;48.770;9.148;2023-10-19T01:31:17;1.42;;;1.33;;
62588;SDS011;58504;48.770;9.148;2023-10-19T01:33:56;1.30;;;1.25;;
62588;SDS011;58504;48.770;9.148;2023-10-19T01:36:24;1.17;;;1.08;;
62588;SDS011;58504;48.770;9.148;2023-10-19T01:38:53;1.20;;;1.10;;
62588;SDS011;58504;48.770;9.148;2023-10-19T01:41:20;1.15;;;1.15;;
62588;SDS011;58504;48.770;9.148;2023-10-19T01:43:49;1.45;;;1.27;;
62588;SDS011;58504;48.770;9.148;2023-10-19T01:46:18;1.05;;;1.05;;
62588;SDS011;58504;48.770;9.148;2023-10-19T01:48:50;1.58;;;1.27;;
62588;SDS011;58504;48.770;9.148;2023-10-19T01:51:20;1.95;;;1.65;;
62588;SDS011;58504;48.770;9.148;2023-10-19T01:53:48;1.10;;;1.10;;
62588;SDS011;58504;48.770;9.148;2023-10-19T01:56:17;1.70;;;1.60;;
62588;SDS011;58504;48.770;9.148;2023-10-19T01:58:44;0.93;;;0.93;;
62588;SDS011;58504;48.770;9.148;2023-10-19T02:01:13;1.42;;;1.33;;
62588;SDS011;58504;48.770;9.148;2023-10-19T02:03:45;1.10;;;1.10;;
62588;SDS011;58504;48.770;9.148;2023-10-19T02:08:45;1.50;;;1.33;;
62588;SDS011;58504;48.770;9.148;2023-10-19T02:11:13;1.25;;;1.25;;
62588;SDS011;58504;48.770;9.148;2023-10-19T02:13:45;1.45;;;1.35;;
62588;SDS011;58504;48.770;9.148;2023-10-19T02:16:13;0.98;;;0.98;;
62588;SDS011;58504;48.770;9.148;2023-10-19T02:18:41;1.15;;;1.15;;
62588;SDS011;58504;48.770;9.148;2023-10-19T02:21:09;1.08;;;1.08;;
62588;SDS011;58504;48.770;9.148;2023-10-19T02:23:37;1.67;;;1.50;;
62588;SDS011;58504;48.770;9.148;2023-10-19T02:26:06;1.17;;;1.17;;
62588;SDS011;58504;48.770;9.148;2023-10-19T02:28:33;1.10;;;1.10;;
62588;SDS011;58504;48.770;9.148;2023-10-19T02:31:03;0.90;;;0.90;;
62588;SDS011;58504;48.770;9.148;2023-10-19T02:33:40;1.10;;;1.10;;
62588;SDS011;58504;48.770;9.148;2023-10-19T02:36:06;1.02;;;1.02;;
62588;SDS011;58504;48.770;9.148;2023-10-19T02:38:38;1.10;;;1.10;;
62588;SDS011;58504;48.770;9.148;2023-10-19T02:41:05;1.17;;;1.17;;
62588;SDS011;58504;48.770;9.148;2023-10-19T02:43:34;1.10;;;1.10;;
62588;SDS011;58504;48.770;9.148;2023-10-19T02:46:00;1.13;;;1.13;;
62588;SDS011;58504;48.770;9.148;2023-10-19T02:48:29;1.17;;;1.10;;
62588;SDS011;58504;48.770;9.148;2023-10-19T02:50:56;1.33;;;1.25;;
62588;SDS011;58504;48.770;9.148;2023-10-19T02:53:31;1.00;;;1.00;;
62588;SDS011;58504;48.770;9.148;2023-10-19T02:55:58;1.27;;;1.20;;
62588;SDS011;58504;48.770;9.148;2023-10-19T02:58:27;1.40;;;1.30;;
62588;SDS011;58504;48.770;9.148;2023-10-19T03:00:53;1.40;;;1.00;;
62588;SDS011;58504;48.770;9.148;2023-10-19T03:03:20;0.90;;;0.90;;
62588;SDS011;58504;48.770;9.148;2023-10-19T03:05:48;1.38;;;1.27;;
62588;SDS011;58504;48.770;9.148;2023-10-19T03:08:16;1.00;;;1.00;;
62588;SDS011;58504;48.770;9.148;2023-10-19T03:10:44;1.10;;;1.10;;
62588;SDS011;58504;48.770;9.148;2023-10-19T03:13:12;1.10;;;1.10;;
62588;SDS011;58504;48.770;9.148;2023-10-19T03:15:39;0.75;;;0.75;;
62588;SDS011;58504;48.770;9.148;2023-10-19T03:18:08;1.10;;;1.10;;
62588;SDS011;58504;48.770;9.148;2023-10-19T03:20:37;1.10;;;1.10;;
62588;SDS011;58504;48.770;9.148;2023-10-19T03:23:07;1.15;;;1.05;;
62588;SDS011;58504;48.770;9.148;2023-10-19T03:25:35;1.10;;;1.10;;
62588;SDS011;58504;48.770;9.148;2023-10-19T03:28:20;0.90;;;0.90;;
62588;SDS011;58504;48.770;9.148;2023-10-19T03:30:50;1.17;;;1.17;;
62588;SDS011;58504;48.770;9.148;2023-10-19T03:33:20;1.10;;;1.10;;
62588;SDS011;58504;48.770;9.148;2023-10-19T03:35:52;1.20;;;1.20;;
62588;SDS011;58504;48.770;9.148;2023-10-19T03:38:20;1.40;;;1.35;;
62588;SDS011;58504;48.770;9.148;2023-10-19T03:40:48;1.10;;;1.10;;
62588;SDS011;58504;48.770;9.148;2023-10-19T03:43:23;1.15;;;1.13;;
62588;SDS011;58504;48.770;9.148;2023-10-19T03:45:52;3.30;;;1.00;;
62588;SDS011;58504;48.770;9.148;2023-10-19T03:48:20;1.10;;;1.10;;
62588;SDS011;58504;48.770;9.148;2023-10-19T03:50:51;0.95;;;0.95;;
62588;SDS011;58504;48.770;9.148;2023-10-19T03:53:22;1.00;;;0.98;;
62588;SDS011;58504;48.770;9.148;2023-10-19T03:55:49;0.98;;;0.98;;
62588;SDS011;58504;48.770;9.148;2023-10-19T03:58:18;1.27;;;1.17;;
62588;SDS011;58504;48.770;9.148;2023-10-19T04:00:46;1.15;;;1.15;;
62588;SDS011;58504;48.770;9.148;2023-10-19T04:03:15;1.30;;;1.20;;
62588;SDS011;58504;48.770;9.148;2023-10-19T04:05:42;1.00;;;1.00;;
62588;SDS011;58504;48.770;9.148;2023-10-19T04:08:12;1.10;;;1.10;;
62588;SDS011;58504;48.770;9.148;2023-10-19T04:10:41;1.08;;;1.08;;
62588;SDS011;58504;48.770;9.148;2023-10-19T04:13:12;0.82;;;0.82;;
62588;SDS011;58504;48.770;9.148;2023-10-19T04:15:39;1.05;;;1.05;;
62588;SDS011;58504;48.770;9.148;2023-10-19T04:18:06;1.25;;;1.25;;
62588;SDS011;58504;48.770;9.148;2023-10-19T04:20:36;0.98;;;0.98;;
62588;SDS011;58504;48.770;9.148;2023-10-19T04:23:20;0.90;;;0.90;;
62588;SDS011;58504;48.770;9.148;2023-10-19T04:25:48;1.00;;;1.00;;
62588;SDS011;58504;48.770;9.148;2023-10-19T04:28:15;1.30;;;1.20;;
62588;SDS011;58504;48.770;9.148;2023-10-19T04:30:45;0.95;;;0.95;;
62588;SDS011;58504;48.770;9.148;2023-10-19T04:33:13;0.90;;;0.90;;
62588;SDS011;58504;48.770;9.148;2023-10-19T04:35:41;1.13;;;1.10;;
62588;SDS011;58504;48.770;9.148;2023-10-19T04:38:08;1.05;;;1.05;;
62588;SDS011;58504;48.770;9.148;2023-10-19T04:40:35;0.90;;;0.90;;
62588;SDS011;58504;48.770;9.148;2023-10-19T04:43:03;0.90;;;0.90;;
62588;SDS011;58504;48.770;9.148;2023-10-19T04:45:30;0.70;;;0.70;;
62588;SDS011;58504;48.770;9.148;2023-10-19T04:47:57;1.00;;;1.00;;
62588;SDS011;58504;48.770;9.148;2023-10-19T04:50:24;0.93;;;0.93;;
62588;SDS011;58504;48.770;9.148;2023-10-19T04:52:50;0.90;;;0.90;;
62588;SDS011;58504;48.770;9.148;2023-10-19T04:55:17;0.98;;;0.98;;
62588;SDS011;58504;48.770;9.148;2023-10-19T04:57:44;0.80;;;0.80;;
62588;SDS011;58504;48.770;9.148;2023-10-19T05:00:13;0.88;;;0.80;;
62588;SDS011;58504;48.770;9.148;2023-10-19T05:02:40;0.90;;;0.90;;
62588;SDS011;58504;48.770;9.148;2023-10-19T05:05:07;1.00;;;1.00;;
62588;SDS011;58504;48.770;9.148;2023-10-19T05:07:34;0.90;;;0.90;;
62588;SDS011;58504;48.770;9.148;2023-10-19T05:10:01;1.38;;;1.27;;
62588;SDS011;58504;48.770;9.148;2023-10-19T05:12:30;0.80;;;0.80;;
62588;SDS011;58504;48.770;9.148;2023-10-19T05:14:57;0.85;;;0.85;;
62588;SDS011;58504;48.770;9.148;2023-10-19T05:17:25;0.80;;;0.80;;
62588;SDS011;58504;48.770;9.148;2023-10-19T05:19:52;0.88;;;0.88;;
62588;SDS011;58504;48.770;9.148;2023-10-19T05:22:19;0.95;;;0.95;;
62588;SDS011;58504;48.770;9.148;2023-10-19T05:24:46;0.65;;;0.65;;
62588;SDS011;58504;48.770;9.148;2023-10-19T05:27:13;0.60;;;0.60;;
62588;SDS011;58504;48.770;9.148;2023-10-19T05:29:40;0.82;;;0.82;;
62588;SDS011;58504;48.770;9.148;2023-10-19T05:32:07;0.82;;;0.82;;
62588;SDS011;58504;48.770;9.148;2023-10-19T05:34:35;0.95;;;0.95;;
62588;SDS011;58504;48.770;9.148;2023-10-19T05:37:02;0.70;;;0.70;;
62588;SDS011;58504;48.770;9.148;2023-10-19T05:39:30;0.90;;;0.90;;
62588;SDS011;58504;48.770;9.148;2023-10-19T05:41:58;0.80;;;0.80;;
62588;SDS011;58504;48.770;9.148;2023-10-19T05:44:26;1.05;;;0.90;;
62588;SDS011;58504;48.770;9.148;2023-10-19T05:46:53;0.90;;;0.90;;
62588;SDS011;58504;48.770;9.148;2023-10-19T05:49:21;1.08;;;1.08;;
62588;SDS011;58504;48.770;9.148;2023-10-19T05:51:50;2.28;;;0.82;;
62588;SDS011;58504;48.770;9.148;2023-10-19T05:54:17;0.90;;;0.82;;
62588;SDS011;58504;48.770;9.148;2023-10-19T05:56:44;0.80;;;0.80;;
62588;SDS011;58504;48.770;9.148;2023-10-19T05:59:11;0.68;;;0.68;;
62588;SDS011;58504;48.770;9.148;2023-10-19T06:01:38;0.60;;;0.60;;
62588;SDS011;58504;48.770;9.148;2023-10-19T06:04:06;0.60;;;0.60;;
62588;SDS011;58504;48.770;9.148;2023-10-19T06:06:33;1.23;;;0.77;;
62588;SDS011;58504;48.770;9.148;2023-10-19T06:09:02;0.80;;;0.80;;
62588;SDS011;58504;48.770;9.148;2023-10-19T06:11:29;0.65;;;0.65;;
62588;SDS011;58504;48.770;9.148;2023-10-19T06:13:57;0.70;;;0.70;;
62588;SDS011;58504;48.770;9.148;2023-10-19T06:16:24;0.82;;;0.82;;
62588;SDS011;58504;48.770;9.148;2023-10-19T06:18:52;0.60;;;0.60;;
62588;SDS011;58504;48.770;9.148;2023-10-19T06:21:20;0.80;;;0.80;;
62588;SDS011;58504;48.770;9.148;2023-10-19T06:23:47;0.68;;;0.68;;
62588;SDS011;58504;48.770;9.148;2023-10-19T06:26:16;1.42;;;1.23;;
62588;SDS011;58504;48.770;9.148;2023-10-19T06:28:43;0.90;;;0.90;;
62588;SDS011;58504;48.770;9.148;2023-10-19T06:31:10;1.02;;;1.02;;
62588;SDS011;58504;48.770;9.148;2023-10-19T06:33:37;0.77;;;0.77;;
62588;SDS011;58504;48.770;9.148;2023-10-19T06:36:06;0.98;;;0.98;;
62588;SDS011;58504;48.770;9.148;2023-10-19T06:38:34;0.70;;;0.70;;
62588;SDS011;58504;48.770;9.148;2023-10-19T06:41:00;0.65;;;0.65;;
62588;SDS011;58504;48.770;9.148;2023-10-19T06:43:37;0.68;;;0.68;;
62588;SDS011;58504;48.770;9.148;2023-10-19T06:46:04;0.75;;;0.75;;
62588;SDS011;58504;48.770;9.148;2023-10-19T06:48:31;1.05;;;1.05;;
62588;SDS011;58504;48.770;9.148;2023-10-19T06:50:58;0.70;;;0.70;;
62588;SDS011;58504;48.770;9.148;2023-10-19T06:53:25;0.70;;;0.70;;
62588;SDS011;58504;48.770;9.148;2023-10-19T06:55:52;0.82;;;0.82;;
62588;SDS011;58504;48.770;9.148;2023-10-19T06:58:19;0.88;;;0.88;;
62588;SDS011;58504;48.770;9.148;2023-10-19T07:00:52;1.00;;;0.93;;
62588;SDS011;58504;48.770;9.148;2023-10-19T07:03:24;0.70;;;0.70;;
62588;SDS011;58504;48.770;9.148;2023-10-19T07:05:53;0.73;;;0.73;;
62588;SDS011;58504;48.770;9.148;2023-10-19T07:08:20;0.85;;;0.85;;
62588;SDS011;58504;48.770;9.148;2023-10-19T07:10:47;1.42;;;0.70;;
62588;SDS011;58504;48.770;9.148;2023-10-19T07:13:14;0.65;;;0.65;;
62588;SDS011;58504;48.770;9.148;2023-10-19T07:15:44;1.00;;;0.70;;
62588;SDS011;58504;48.770;9.148;2023-10-19T07:18:12;1.20;;;0.90;;
62588;SDS011;58504;48.770;9.148;2023-10-19T07:20:39;0.98;;;0.75;;
62588;SDS011;58504;48.770;9.148;2023-10-19T07:23:07;0.90;;;0.90;;
62588;SDS011;58504;48.770;9.148;2023-10-19T07:25:43;1.45;;;0.75;;
62588;SDS011;58504;48.770;9.148;2023-10-19T07:28:11;0.90;;;0.90;;
62588;SDS011;58504;48.770;9.148;2023-10-19T07:30:39;0.77;;;0.77;;
62588;SDS011;58504;48.770;9.148;2023-10-19T07:33:06;4.82;;;0.80;;
62588;SDS011;58504;48.770;9.148;2023-10-19T07:35:36;0.70;;;0.70;;
62588;SDS011;58504;48.770;9.148;2023-10-19T07:38:04;2.60;;;1.13;;
62588;SDS011;58504;48.770;9.148;2023-10-19T07:40:32;0.85;;;0.85;;
62588;SDS011;58504;48.770;9.148;2023-10-19T07:42:59;0.90;;;0.80;;
62588;SDS011;58504;48.770;9.148;2023-10-19T07:45:26;1.73;;;0.80;;
62588;SDS011;58504;48.770;9.148;2023-10-19T07:47:53;0.90;;;0.80;;
62588;SDS011;58504;48.770;9.148;2023-10-19T07:50:20;1.67;;;1.08;;
62588;SDS011;58504;48.770;9.148;2023-10-19T07:52:49;1.10;;;1.10;;
62588;SDS011;58504;48.770;9.148;2023-10-19T07:55:21;0.98;;;0.98;;
62588;SDS011;58504;48.770;9.148;2023-10-19T07:57:49;1.00;;;1.00;;
62588;SDS011;58504;48.770;9.148;2023-10-19T08:00:16;1.13;;;0.80;;
62588;SDS011;58504;48.770;9.148;2023-10-19T08:02:45;0.82;;;0.82;;
62588;SDS011;58504;48.770;9.148;2023-10-19T08:05:13;1.25;;;1.20;;
62588;SDS011;58504;48.770;9.148;2023-10-19T08:07:42;1.02;;;1.02;;
62588;SDS011;58504;48.770;9.148;2023-10-19T08:10:10;1.30;;;1.27;;
62588;SDS011;58504;48.770;9.148;2023-10-19T08:12:38;1.35;;;1.10;;
62588;SDS011;58504;48.770;9.148;2023-10-19T08:15:06;1.35;;;1.02;;
62588;SDS011;58504;48.770;9.148;2023-10-19T08:17:36;2.47;;;0.90;;
62588;SDS011;58504;48.770;9.148;2023-10-19T08:20:03;1.35;;;1.13;;
62588;SDS011;58504;48.770;9.148;2023-10-19T08:22:33;0.90;;;0.90;;
62588;SDS011;58504;48.770;9.148;2023-10-19T08:25:01;0.82;;;0.80;;
62588;SDS011;58504;48.770;9.148;2023-10-19T08:27:31;0.85;;;0.85;;
62588;SDS011;58504;48.770;9.148;2023-10-19T08:29:58;0.90;;;0.90;;
62588;SDS011;58504;48.770;9.148;2023-10-19T08:32:25;0.75;;;0.75;;
62588;SDS011;58504;48.770;9.148;2023-10-19T08:34:52;1.25;;;0.90;;
62588;SDS011;58504;48.770;9.148;2023-10-19T08:37:18;1.95;;;0.88;;
62588;SDS011;58504;48.770;9.148;2023-10-19T08:39:45;2.78;;;1.15;;
62588;SDS011;58504;48.770;9.148;2023-10-19T08:42:12;1.23;;;1.13;;
62588;SDS011;58504;48.770;9.148;2023-10-19T08:44:40;1.80;;;1.02;;
62588;SDS011;58504;48.770;9.148;2023-10-19T08:47:07;1.10;;;1.10;;
62588;SDS011;58504;48.770;9.148;2023-10-19T08:49:34;1.00;;;1.00;;
62588;SDS011;58504;48.770;9.148;2023-10-19T08:52:01;1.33;;;0.80;;
62588;SDS011;58504;48.770;9.148;2023-10-19T08:54:29;0.93;;;0.93;;
62588;SDS011;58504;48.770;9.148;2023-10-19T08:56:58;1.17;;;0.93;;
62588;SDS011;58504;48.770;9.148;2023-10-19T08:59:26;0.80;;;0.80;;
62588;SDS011;58504;48.770;9.148;2023-10-19T09:02:00;0.90;;;0.90;;
62588;SDS011;58504;48.770;9.148;2023-10-19T09:04:28;0.80;;;0.80;;
62588;SDS011;58504;48.770;9.148;2023-10-19T09:06:55;0.80;;;0.80;;
62588;SDS011;58504;48.770;9.148;2023-10-19T09:09:21;0.90;;;0.90;;
62588;SDS011;58504;48.770;9.148;2023-10-19T09:11:50;0.80;;;0.80;;
62588;SDS011;58504;48.770;9.148;2023-10-19T09:14:30;0.73;;;0.73;;
62588;SDS011;58504;48.770;9.148;2023-10-19T09:16:58;1.88;;;0.82;;
62588;SDS011;58504;48.770;9.148;2023-10-19T09:19:38;0.75;;;0.75;;
62588;SDS011;58504;48.770;9.148;2023-10-19T09:22:07;1.58;;;0.98;;
62588;SDS011;58504;48.770;9.148;2023-10-19T09:24:43;0.82;;;0.82;;
62588;SDS011;58504;48.770;9.148;2023-10-19T09:27:11;0.85;;;0.85;;
62588;SDS011;58504;48.770;9.148;2023-10-19T09:29:38;0.80;;;0.70;;
62588;SDS011;58504;48.770;9.148;2023-10-19T09:32:08;0.70;;;0.70;;
62588;SDS011;58504;48.770;9.148;2023-10-19T09:34:38;0.93;;;0.93;;
62588;SDS011;58504;48.770;9.148;2023-10-19T09:37:08;1.10;;;1.10;;
62588;SDS011;58504;48.770;9.148;2023-10-19T09:39:36;1.75;;;0.90;;
62588;SDS011;58504;48.770;9.148;2023-10-19T09:42:05;1.98;;;0.80;;
62588;SDS011;58504;48.770;9.148;2023-10-19T09:47:09;0.98;;;0.98;;
62588;SDS011;58504;48.770;9.148;2023-10-19T09:49:38;0.60;;;0.60;;
62588;SDS011;58504;48.770;9.148;2023-10-19T09:52:06;0.70;;;0.70;;
62588;SDS011;58504;48.770;9.148;2023-10-19T09:54:37;0.88;;;0.88;;
62588;SDS011;58504;48.770;9.148;2023-10-19T09:57:14;0.90;;;0.90;;
62588;SDS011;58504;48.770;9.148;2023-10-19T09:59:45;1.23;;;1.23;;
62588;SDS011;58504;48.770;9.148;2023-10-19T10:02:18;0.60;;;0.60;;
62588;SDS011;58504;48.770;9.148;2023-10-19T10:04:47;0.90;;;0.80;;
62588;SDS011;58504;48.770;9.148;2023-10-19T10:07:14;0.85;;;0.50;;
62588;SDS011;58504;48.770;9.148;2023-10-19T10:09:42;0.90;;;0.90;;
62588;SDS011;58504;48.770;9.148;2023-10-19T10:12:16;0.80;;;0.80;;
62588;SDS011;58504;48.770;9.148;2023-10-19T10:14:57;0.85;;;0.85;;
62588;SDS011;58504;48.770;9.148;2023-10-19T10:17:28;0.98;;;0.90;;
62588;SDS011;58504;48.770;9.148;2023-10-19T10:19:55;1.20;;;0.90;;
62588;SDS011;58504;48.770;9.148;2023-10-19T10:22:44;0.88;;;0.70;;
62588;SDS011;58504;48.770;9.148;2023-10-19T10:25:24;0.93;;;0.88;;
62588;SDS011;58504;48.770;9.148;2023-10-19T10:27:52;1.90;;;0.80;;
62588;SDS011;58504;48.770;9.148;2023-10-19T10:30:19;0.90;;;0.90;;
62588;SDS011;58504;48.770;9.148;2023-10-19T10:32:46;0.80;;;0.80;;
62588;SDS011;58504;48.770;9.148;2023-10-19T10:38:20;1.35;;;0.90;;
62588;SDS011;58504;48.770;9.148;2023-10-19T10:40:48;1.00;;;0.90;;
62588;SDS011;58504;48.770;9.148;2023-10-19T10:43:16;1.10;;;1.00;;
62588;SDS011;58504;48.770;9.148;2023-10-19T10:45:43;0.95;;;0.95;;
62588;SDS011;58504;48.770;9.148;2023-10-19T10:48:11;1.00;;;0.90;;
62588;SDS011;58504;48.770;9.148;2023-10-19T10:50:38;2.10;;;0.95;;
62588;SDS011;58504;48.770;9.148;2023-10-19T10:53:06;2.30;;;1.33;;
62588;SDS011;58504;48.770;9.148;2023-10-19T10:55:34;0.93;;;0.90;;
62588;SDS011;58504;48.770;9.148;2023-10-19T10:58:01;0.90;;;0.90;;
62588;SDS011;58504;48.770;9.148;2023-10-19T11:00:28;0.60;;;0.60;;
62588;SDS011;58504;48.770;9.148;2023-10-19T11:03:01;1.05;;;1.00;;
62588;SDS011;58504;48.770;9.148;2023-10-19T11:05:30;0.80;;;0.80;;
62588;SDS011;58504;48.770;9.148;2023-10-19T11:08:02;0.90;;;0.90;;
62588;SDS011;58504;48.770;9.148;2023-10-19T11:10:31;1.98;;;0.95;;
62588;SDS011;58504;48.770;9.148;2023-10-19T11:13:03;1.02;;;0.70;;
62588;SDS011;58504;48.770;9.148;2023-10-19T11:15:31;1.48;;;0.93;;
62588;SDS011;58504;48.770;9.148;2023-10-19T11:17:58;0.90;;;0.90;;
62588;SDS011;58504;48.770;9.148;2023-10-19T11:20:25;1.00;;;1.00;;
62588;SDS011;58504;48.770;9.148;2023-10-19T11:22:53;2.00;;;0.73;;
62588;SDS011;58504;48.770;9.148;2023-10-19T11:25:22;2.03;;;0.88;;
62588;SDS011;58504;48.770;9.148;2023-10-19T11:27:53;1.50;;;1.38;;
62588;SDS011;58504;48.770;9.148;2023-10-19T11:30:25;4.13;;;1.20;;
62588;SDS011;58504;48.770;9.148;2023-10-19T11:32:52;1.15;;;0.90;;
62588;SDS011;58504;48.770;9.148;2023-10-19T11:35:22;0.80;;;0.80;;
62588;SDS011;58504;48.770;9.148;2023-10-19T11:37:50;0.80;;;0.80;;
62588;SDS011;58504;48.770;9.148;2023-10-19T11:40:19;3.92;;;1.17;;
62588;SDS011;58504;48.770;9.148;2023-10-19T11:42:46;1.77;;;1.63;;
62588;SDS011;58504;48.770;9.148;2023-10-19T11:45:13;1.75;;;1.20;;
62588;SDS011;58504;48.770;9.148;2023-10-19T11:47:42;2.00;;;1.25;;
62588;SDS011;58504;48.770;9.148;2023-10-19T11:50:10;2.05;;;1.10;;
62588;SDS011;58504;48.770;9.148;2023-10-19T11:52:40;1.17;;;1.08;;
62588;SDS011;58504;48.770;9.148;2023-10-19T11:55:07;0.63;;;0.63;;
62588;SDS011;58504;48.770;9.148;2023-10-19T11:57:34;3.53;;;1.20;;
62588;SDS011;58504;48.770;9.148;2023-10-19T12:00:02;1.55;;;1.30;;
62588;SDS011;58504;48.770;9.148;2023-10-19T12:02:34;2.10;;;1.10;;
62588;SDS011;58504;48.770;9.148;2023-10-19T12:05:03;0.77;;;0.77;;
62588;SDS011;58504;48.770;9.148;2023-10-19T12:07:34;0.70;;;0.70;;
62588;SDS011;58504;48.770;9.148;2023-10-19T12:10:01;0.77;;;0.77;;
62588;SDS011;58504;48.770;9.148;2023-10-19T12:12:29;1.20;;;0.70;;
62588;SDS011;58504;48.770;9.148;2023-10-19T12:14:56;2.25;;;0.93;;
62588;SDS011;58504;48.770;9.148;2023-10-19T12:17:23;1.05;;;0.90;;
62588;SDS011;58504;48.770;9.148;2023-10-19T12:19:51;1.00;;;0.90;;
62588;SDS011;58504;48.770;9.148;2023-10-19T12:22:19;0.93;;;0.93;;
62588;SDS011;58504;48.770;9.148;2023-10-19T12:24:46;2.92;;;0.77;;
62588;SDS011;58504;48.770;9.148;2023-10-19T12:27:14;0.80;;;0.80;;
62588;SDS011;58504;48.770;9.148;2023-10-19T12:29:40;1.45;;;0.98;;
62588;SDS011;58504;48.770;9.148;2023-10-19T12:32:07;1.60;;;0.88;;
62588;SDS011;58504;48.770;9.148;2023-10-19T12:34:34;0.60;;;0.60;;
62588;SDS011;58504;48.770;9.148;2023-10-19T12:37:01;0.55;;;0.55;;
62588;SDS011;58504;48.770;9.148;2023-10-19T12:39:30;0.80;;;0.80;;
62588;SDS011;58504;48.770;9.148;2023-10-19T12:42:08;1.25;;;1.15;;
62588;SDS011;58504;48.770;9.148;2023-10-19T12:44:35;1.10;;;0.88;;
62588;SDS011;58504;48.770;9.148;2023-10-19T12:47:06;0.98;;;0.70;;
62588;SDS011;58504;48.770;9.148;2023-10-19T12:49:35;0.73;;;0.73;;
62588;SDS011;58504;48.770;9.148;2023-10-19T12:52:02;1.35;;;1.02;;
62588;SDS011;58504;48.770;9.148;2023-10-19T12:54:33;0.82;;;0.82;;
62588;SDS011;58504;48.770;9.148;2023-10-19T12:57:01;0.70;;;0.70;;
62588;SDS011;58504;48.770;9.148;2023-10-19T12:59:31;0.73;;;0.73;;
62588;SDS011;58504;48.770;9.148;2023-10-19T13:01:58;0.70;;;0.70;;
62588;SDS011;58504;48.770;9.148;2023-10-19T13:04:28;1.08;;;0.80;;
62588;SDS011;58504;48.770;9.148;2023-10-19T13:06:56;0.75;;;0.75;;
62588;SDS011;58504;48.770;9.148;2023-10-19T13:09:23;1.00;;;0.80;;
62588;SDS011;58504;48.770;9.148;2023-10-19T13:11:57;0.80;;;0.80;;
62588;SDS011;58504;48.770;9.148;2023-10-19T13:14:24;0.60;;;0.60;;
62588;SDS011;58504;48.770;9.148;2023-10-19T13:16:51;2.00;;;0.70;;
62588;SDS011;58504;48.770;9.148;2023-10-19T13:19:19;0.65;;;0.65;;
62588;SDS011;58504;48.770;9.148;2023-10-19T13:21:49;0.93;;;0.80;;
62588;SDS011;58504;48.770;9.148;2023-10-19T13:24:17;0.60;;;0.60;;
62588;SDS011;58504;48.770;9.148;2023-10-19T13:26:45;0.95;;;0.80;;
62588;SDS011;58504;48.770;9.148;2023-10-19T13:29:13;0.65;;;0.65;;
62588;SDS011;58504;48.770;9.148;2023-10-19T13:31:42;0.82;;;0.80;;
62588;SDS011;58504;48.770;9.148;2023-10-19T13:34:14;1.15;;;1.02;;
62588;SDS011;58504;48.770;9.148;2023-10-19T13:36:41;0.88;;;0.80;;
62588;SDS011;58504;48.770;9.148;2023-10-19T13:39:09;0.50;;;0.50;;
62588;SDS011;58504;48.770;9.148;2023-10-19T13:41:38;0.70;;;0.70;;
62588;SDS011;58504;48.770;9.148;2023-10-19T13:44:05;0.68;;;0.68;;
62588;SDS011;58504;48.770;9.148;2023-10-19T13:46:33;0.68;;;0.60;;
62588;SDS011;58504;48.770;9.148;2023-10-19T13:49:00;1.15;;;0.60;;
62588;SDS011;58504;48.770;9.148;2023-10-19T13:51:30;0.77;;;0.77;;
62588;SDS011;58504;48.770;9.148;2023-10-19T13:53:58;0.63;;;0.63;;
62588;SDS011;58504;48.770;9.148;2023-10-19T13:56:25;0.50;;;0.50;;
62588;SDS011;58504;48.770;9.148;2023-10-19T13:58:52;0.50;;;0.50;;
62588;SDS011;58504;48.770;9.148;2023-10-19T14:01:19;1.05;;;0.80;;
62588;SDS011;58504;48.770;9.148;2023-10-19T14:03:52;0.52;;;0.52;;
62588;SDS011;58504;48.770;9.148;2023-10-19T14:06:20;3.50;;;0.80;;
62588;SDS011;58504;48.770;9.148;2023-10-19T14:08:49;1.85;;;0.70;;
62588;SDS011;58504;48.770;9.148;2023-10-19T14:11:15;0.63;;;0.63;;
62588;SDS011;58504;48.770;9.148;2023-10-19T14:13:42;1.15;;;0.47;;
62588;SDS011;58504;48.770;9.148;2023-10-19T14:16:10;0.95;;;0.95;;
62588;SDS011;58504;48.770;9.148;2023-10-19T14:18:37;1.20;;;0.73;;
62588;SDS011;58504;48.770;9.148;2023-10-19T14:21:11;1.52;;;0.73;;
62588;SDS011;58504;48.770;9.148;2023-10-19T14:23:39;0.70;;;0.70;;
62588;SDS011;58504;48.770;9.148;2023-10-19T14:26:08;0.63;;;0.63;;
62588;SDS011;58504;48.770;9.148;2023-10-19T14:28:35;0.73;;;0.73;;
62588;SDS011;58504;48.770;9.148;2023-10-19T14:31:02;0.88;;;0.88;;
62588;SDS011;58504;48.770;9.148;2023-10-19T14:33:29;1.13;;;0.80;;
62588;SDS011;58504;48.770;9.148;2023-10-19T14:35:56;1.95;;;0.93;;
62588;SDS011;58504;48.770;9.148;2023-10-19T14:38:24;3.58;;;1.00;;
62588;SDS011;58504;48.770;9.148;2023-10-19T14:40:52;0.95;;;0.95;;
62588;SDS011;58504;48.770;9.148;2023-10-19T14:43:19;0.70;;;0.70;;
62588;SDS011;58504;48.770;9.148;2023-10-19T14:45:46;0.68;;;0.68;;
62588;SDS011;58504;48.770;9.148;2023-10-19T14:48:12;2.22;;;0.73;;
62588;SDS011;58504;48.770;9.148;2023-10-19T14:50:39;0.63;;;0.63;;
62588;SDS011;58504;48.770;9.148;2023-10-19T14:53:08;0.60;;;0.60;;
62588;SDS011;58504;48.770;9.148;2023-10-19T14:55:36;1.95;;;1.00;;
62588;SDS011;58504;48.770;9.148;2023-10-19T14:58:03;1.50;;;1.10;;
62588;SDS011;58504;48.770;9.148;2023-10-19T15:00:31;2.28;;;0.77;;
62588;SDS011;58504;48.770;9.148;2023-10-19T15:02:59;1.17;;;0.52;;
62588;SDS011;58504;48.770;9.148;2023-10-19T15:05:31;0.82;;;0.82;;